createdAt,value
2023-03-06T00:02:39.132Z,100053.03
2023-03-06T00:05:26.269Z,100049.59
2023-03-06T00:08:13.350Z,100047.94
2023-03-06T00:11:00.964Z,100044.53
2023-03-06T00:13:48.446Z,100049.75
2023-03-06T00:16:35.480Z,100033.44
2023-03-06T00:19:22.366Z,100042.03
2023-03-06T00:22:09.737Z,100043.78
2023-03-06T00:24:56.818Z,100044.72
2023-03-06T00:27:43.737Z,100042.16
2023-03-06T00:30:34.082Z,100054.34
2023-03-06T00:33:21.561Z,100018.16
2023-03-06T00:36:09.130Z,100032.84
2023-03-06T00:38:56.084Z,100044.94
2023-03-06T00:41:46.977Z,100048.38
2023-03-06T00:44:34.115Z,100049.25
2023-03-06T00:47:22.208Z,100048.41
2023-03-06T00:50:09.933Z,100038.00
2023-03-06T00:52:57.035Z,100038.91
2023-03-06T00:55:44.934Z,100031.13
2023-03-06T00:58:32.190Z,100038.97
2023-03-06T01:01:19.182Z,100034.63
2023-03-06T01:04:06.347Z,100034.69
2023-03-06T01:06:53.566Z,99974.41
2023-03-06T01:09:40.996Z,99972.69
2023-03-06T01:12:28.297Z,100011.34
2023-03-06T01:15:15.375Z,100017.38
2023-03-06T01:18:02.427Z,100028.59
2023-03-06T01:20:49.760Z,99950.22
2023-03-06T01:23:36.783Z,99940.00
2023-03-06T01:26:24.241Z,100027.78
2023-03-06T01:29:11.267Z,100027.78
2023-03-06T01:31:58.685Z,100025.16
2023-03-06T01:34:45.913Z,100020.84
2023-03-06T01:37:33.103Z,100026.06
2023-03-06T01:40:19.888Z,100017.44
2023-03-06T01:43:09.516Z,100032.16
2023-03-06T01:45:56.328Z,100023.47
2023-03-06T01:48:44.721Z,100025.22
2023-03-06T01:51:32.178Z,100015.72
2023-03-06T01:54:22.323Z,100020.91
2023-03-06T01:57:12.735Z,99973.56
2023-03-06T02:00:02.708Z,100017.44
2023-03-06T02:03:02.226Z,100015.75
2023-03-06T02:05:49.301Z,99969.31
2023-03-06T02:08:39.608Z,100011.44
2023-03-06T02:11:33.955Z,100004.50
2023-03-06T02:14:40.955Z,100006.31
2023-03-06T02:17:30.945Z,100014.09
2023-03-06T02:20:46.014Z,100011.50
2023-03-06T02:24:13.101Z,100010.66
2023-03-06T02:27:02.330Z,100011.53
2023-03-06T02:29:50.808Z,100017.69
2023-03-06T02:32:37.853Z,100007.28
2023-03-06T02:35:25.115Z,100012.53
2023-03-06T02:38:12.956Z,99972.06
2023-03-06T02:41:03.523Z,99977.22
2023-03-06T02:43:54.242Z,100002.19
2023-03-06T02:46:41.341Z,100008.28
2023-03-06T02:49:28.282Z,100008.31
2023-03-06T02:52:15.270Z,99972.94
2023-03-06T02:55:02.343Z,100002.25
2023-03-06T02:57:49.215Z,99994.47
2023-03-06T03:00:37.407Z,99999.72
2023-03-06T03:03:26.947Z,99996.28
2023-03-06T03:06:13.962Z,99995.47
2023-03-06T03:09:00.954Z,99993.84
2023-03-06T03:11:48.926Z,99983.50
2023-03-06T03:14:36.252Z,99997.34
2023-03-06T03:17:24.083Z,100001.72
2023-03-06T03:20:11.822Z,99979.41
2023-03-06T03:22:59.100Z,100000.09
2023-03-06T03:25:46.849Z,99997.53
2023-03-06T03:28:34.059Z,99988.97
2023-03-06T03:31:25.399Z,99997.63
2023-03-06T03:34:12.546Z,99961.47
2023-03-06T03:37:02.699Z,99989.06
2023-03-06T03:39:49.827Z,99999.47
2023-03-06T03:42:37.069Z,99986.56
2023-03-06T03:45:25.754Z,99984.81
2023-03-06T03:48:12.858Z,99997.03
2023-03-06T03:50:59.913Z,99986.66
2023-03-06T03:53:47.099Z,99968.59
2023-03-06T03:56:38.529Z,99978.06
2023-03-06T03:59:31.024Z,99986.75
2023-03-06T04:02:30.974Z,99983.34
2023-03-06T04:05:26.719Z,99979.03
2023-03-06T04:08:13.751Z,99969.63
2023-03-06T04:11:03.506Z,100000.81
2023-03-06T04:13:52.212Z,99985.25
2023-03-06T04:16:39.256Z,99993.09
2023-03-06T04:19:27.040Z,99956.94
2023-03-06T04:22:13.929Z,99984.50
2023-03-06T04:25:00.968Z,99994.88
2023-03-06T04:27:47.954Z,99996.63
2023-03-06T04:30:35.097Z,99993.22
2023-03-06T04:33:22.709Z,99994.97
2023-03-06T04:36:09.916Z,99976.09
2023-03-06T04:38:56.940Z,99995.91
2023-03-06T04:41:44.449Z,99994.16
2023-03-06T04:44:31.535Z,99997.66
2023-03-06T04:47:19.337Z,99997.69
2023-03-06T04:50:06.704Z,99992.56
2023-03-06T04:52:53.886Z,99985.69
2023-03-06T04:55:40.997Z,100007.28
2023-03-06T04:58:28.171Z,99997.84
2023-03-06T05:01:15.578Z,100010.78
2023-03-06T05:04:02.606Z,100008.22
2023-03-06T05:06:49.436Z,100007.38
2023-03-06T05:09:38.299Z,100006.50
2023-03-06T05:12:26.689Z,100007.44
2023-03-06T05:15:13.710Z,99990.22
2023-03-06T05:18:00.745Z,100000.53
2023-03-06T05:20:47.603Z,100002.31
2023-03-06T05:23:34.720Z,100008.38
2023-03-06T05:26:24.866Z,100011.81
2023-03-06T05:29:11.821Z,100010.16
2023-03-06T05:31:58.817Z,99986.91
2023-03-06T05:34:45.698Z,100005.84
2023-03-06T05:37:32.712Z,99984.34
2023-03-06T05:40:20.383Z,100008.47
2023-03-06T05:43:07.403Z,100006.75
2023-03-06T05:45:55.657Z,99972.25
2023-03-06T05:48:42.918Z,100000.72
2023-03-06T05:51:30.905Z,100001.59
2023-03-06T05:54:18.005Z,99992.97
2023-03-06T05:57:04.954Z,99997.31
2023-03-06T05:59:52.677Z,99974.84
2023-03-06T06:02:39.856Z,99992.13
2023-03-06T06:05:27.568Z,99996.44
2023-03-06T06:08:14.581Z,99992.13
2023-03-06T06:11:01.592Z,99993.00
2023-03-06T06:13:48.469Z,99976.63
2023-03-06T06:16:36.645Z,99994.75
2023-03-06T06:19:23.683Z,99991.28
2023-03-06T06:22:14.110Z,99993.00
2023-03-06T06:25:01.137Z,99988.72
2023-03-06T06:27:48.086Z,99999.94
2023-03-06T06:30:35.110Z,99999.94
2023-03-06T06:33:22.009Z,100004.25
2023-03-06T06:36:09.143Z,99998.19
2023-03-06T06:38:56.132Z,99992.16
2023-03-06T06:41:59.423Z,99995.59
2023-03-06T06:44:50.664Z,99994.75
2023-03-06T06:47:37.635Z,99994.75
2023-03-06T06:50:24.894Z,99983.47
2023-03-06T06:53:11.814Z,99985.19
2023-03-06T06:55:58.781Z,99988.66
2023-03-06T06:58:46.506Z,99988.63
2023-03-06T07:01:34.147Z,99986.03
2023-03-06T07:04:21.140Z,99992.09
2023-03-06T07:07:08.399Z,99989.47
2023-03-06T07:09:55.394Z,99986.88
2023-03-06T07:12:42.362Z,99956.69
2023-03-06T07:15:32.172Z,99986.84
2023-03-06T07:18:19.077Z,99979.03
2023-03-06T07:21:05.986Z,99986.81
2023-03-06T07:23:53.050Z,99984.19
2023-03-06T07:26:39.971Z,99986.78
2023-03-06T07:29:26.879Z,99986.75
2023-03-06T07:32:13.779Z,99979.81
2023-03-06T07:35:19.006Z,99980.63
2023-03-06T07:38:06.906Z,99980.63
2023-03-06T07:40:53.949Z,99983.19
2023-03-06T07:43:40.976Z,99989.22
2023-03-06T07:46:29.176Z,99989.19
2023-03-06T07:49:16.169Z,99963.25
2023-03-06T07:52:04.046Z,99978.75
2023-03-06T07:54:50.861Z,99962.34
2023-03-06T07:57:37.819Z,99981.28
2023-03-06T08:00:26.603Z,99981.25
2023-03-06T08:03:13.611Z,99986.44
2023-03-06T08:06:01.005Z,99982.94
2023-03-06T08:08:47.880Z,99976.84
2023-03-06T08:11:37.806Z,99975.13
2023-03-06T08:14:24.919Z,99972.47
2023-03-06T08:17:11.954Z,99966.38
2023-03-06T08:19:58.926Z,99978.44
2023-03-06T08:22:45.782Z,99971.50
2023-03-06T08:25:35.926Z,99943.94
2023-03-06T08:28:23.736Z,99974.00
2023-03-06T08:31:10.631Z,99980.06
2023-03-06T08:33:58.396Z,99954.16
2023-03-06T08:36:45.840Z,99967.84
2023-03-06T08:39:33.069Z,99978.22
2023-03-06T08:42:19.950Z,99969.50
2023-03-06T08:45:06.941Z,99973.81
2023-03-06T08:47:55.004Z,99972.91
2023-03-06T08:50:41.999Z,99955.63
2023-03-06T08:53:42.047Z,99972.84
2023-03-06T08:56:42.542Z,99972.78
2023-03-06T08:59:31.370Z,99965.00
2023-03-06T09:02:18.278Z,99975.31
2023-03-06T09:05:05.181Z,99970.06
2023-03-06T09:07:52.058Z,99963.94
2023-03-06T09:10:42.398Z,99963.88
2023-03-06T09:13:29.472Z,99959.53
2023-03-06T09:16:16.588Z,99959.47
2023-03-06T09:19:03.611Z,99956.88
2023-03-06T09:21:50.551Z,99956.00
2023-03-06T09:24:37.372Z,99955.00
2023-03-06T09:27:24.376Z,99954.09
2023-03-06T09:30:11.471Z,99957.53
2023-03-06T09:32:58.436Z,99949.66
2023-03-06T09:35:45.395Z,99949.59
2023-03-06T09:38:32.423Z,99953.00
2023-03-06T09:41:19.331Z,99952.06
2023-03-06T09:44:12.384Z,99949.38
2023-03-06T09:47:17.213Z,99949.28
2023-03-06T09:50:27.730Z,99952.66
2023-03-06T09:53:39.806Z,99949.06
2023-03-06T09:56:39.644Z,99951.59
2023-03-06T09:59:39.910Z,99942.78
2023-03-06T10:02:40.300Z,99940.06
2023-03-06T10:05:33.730Z,99954.66
2023-03-06T10:08:26.026Z,99957.19
2023-03-06T10:11:25.811Z,99949.22
2023-03-06T10:14:49.541Z,99934.34
2023-03-06T10:17:42.497Z,99936.84
2023-03-06T10:20:36.865Z,99953.13
2023-03-06T10:23:36.176Z,99945.16
2023-03-06T10:26:36.047Z,99944.16
2023-03-06T10:29:32.158Z,99936.19
2023-03-06T10:32:46.115Z,99940.38
2023-03-06T10:35:39.397Z,99939.31
2023-03-06T10:38:41.189Z,99941.78
2023-03-06T10:41:30.979Z,99928.56
2023-03-06T10:44:21.064Z,99862.22
2023-03-06T10:47:11.081Z,99931.78
2023-03-06T10:49:58.507Z,99883.53
2023-03-06T10:52:49.671Z,99935.84
2023-03-06T10:55:47.822Z,99927.84
2023-03-06T10:58:59.150Z,99932.91
2023-03-06T11:01:46.074Z,99929.28
2023-03-06T11:04:51.347Z,99931.72
2023-03-06T11:07:43.962Z,99923.75
2023-03-06T11:10:39.266Z,99924.47
2023-03-06T11:13:41.675Z,99916.53
2023-03-06T11:16:46.532Z,99914.56
2023-03-06T11:19:44.094Z,99917.06
2023-03-06T11:22:38.930Z,99887.69
2023-03-06T11:25:30.282Z,99915.88
2023-03-06T11:28:23.468Z,99923.56
2023-03-06T11:31:16.760Z,99908.66
2023-03-06T11:34:15.220Z,99919.78
2023-03-06T11:37:17.240Z,99906.59
2023-03-06T11:40:12.888Z,99904.75
2023-03-06T11:43:29.799Z,99908.75
2023-03-06T11:46:23.418Z,99912.91
2023-03-06T11:49:34.053Z,99913.50
2023-03-06T11:52:35.133Z,99915.81
2023-03-06T11:55:22.450Z,99915.53
2023-03-06T11:58:46.951Z,99905.66
2023-03-06T12:01:59.016Z,99906.19
2023-03-06T12:04:55.515Z,99912.94
2023-03-06T12:08:07.064Z,99904.00
2023-03-06T12:11:10.211Z,99902.06
2023-03-06T12:14:17.109Z,99905.31
2023-03-06T12:17:09.932Z,99901.63
2023-03-06T12:20:13.175Z,99899.78
2023-03-06T12:23:15.261Z,99895.28
2023-03-06T12:26:15.747Z,99900.38
2023-03-06T12:29:23.433Z,99895.84
2023-03-06T12:32:22.625Z,99887.81
2023-03-06T12:35:31.606Z,99891.13
2023-03-06T12:38:27.660Z,99887.47
2023-03-06T12:41:36.307Z,99876.84
2023-03-06T12:44:23.589Z,99874.06
2023-03-06T12:47:31.653Z,99876.47
2023-03-06T12:50:30.206Z,99871.94
2023-03-06T12:53:27.351Z,99855.59
2023-03-06T12:56:15.972Z,99879.31
2023-03-06T12:59:11.145Z,99875.63
2023-03-06T13:02:37.332Z,99877.13
2023-03-06T13:05:47.265Z,99857.03
2023-03-06T13:08:46.055Z,99868.88
2023-03-06T13:11:54.222Z,99866.91
2023-03-06T13:14:54.784Z,99865.84
2023-03-06T13:17:45.152Z,99866.53
2023-03-06T13:20:35.336Z,99864.59
2023-03-06T13:23:50.540Z,99848.91
2023-03-06T13:26:57.564Z,99852.03
2023-03-06T13:29:56.732Z,99857.97
2023-03-06T13:32:50.306Z,99850.94
2023-03-06T13:36:19.288Z,99837.84
2023-03-06T13:39:09.332Z,99847.97
2023-03-06T13:42:20.009Z,99847.84
2023-03-06T13:45:09.133Z,99843.47
2023-03-06T13:48:24.924Z,99801.50
2023-03-06T13:51:12.221Z,99822.91
2023-03-06T13:54:29.965Z,99851.28
2023-03-06T13:57:28.791Z,99844.34
2023-03-06T14:00:36.126Z,99836.41
2023-03-06T14:03:48.710Z,99838.22
2023-03-06T14:06:54.145Z,99832.09
2023-03-06T14:09:48.512Z,99836.56
2023-03-06T14:13:21.795Z,99834.91
2023-03-06T14:16:14.850Z,99828.97
2023-03-06T14:19:06.190Z,99830.03
2023-03-06T14:22:09.068Z,99831.25
2023-03-06T14:25:03.556Z,99834.03
2023-03-06T14:28:14.285Z,99832.56
2023-03-06T14:31:10.303Z,99836.28
2023-03-06T14:34:19.110Z,99837.34
2023-03-06T14:37:11.366Z,99825.63
2023-03-06T14:40:00.445Z,99831.78
2023-03-06T14:42:49.577Z,99821.56
2023-03-06T14:45:38.799Z,99821.72
2023-03-06T14:48:26.381Z,99826.34
2023-03-06T14:51:17.318Z,99833.50
2023-03-06T14:54:06.688Z,99827.53
2023-03-06T14:56:59.910Z,99820.91
2023-03-06T14:59:50.718Z,99824.56
2023-03-06T15:02:42.578Z,99819.56
2023-03-06T15:05:50.391Z,99831.06
2023-03-06T15:08:47.891Z,99828.59
2023-03-06T15:11:34.860Z,99821.81
2023-03-06T15:14:23.742Z,99827.25
2023-03-06T15:17:11.015Z,99787.97
2023-03-06T15:20:02.954Z,99813.84
2023-03-06T15:22:58.481Z,99826.13
2023-03-06T15:25:48.462Z,99821.09
2023-03-06T15:28:50.262Z,99813.41
2023-03-06T15:31:44.935Z,99819.72
2023-03-06T15:34:36.526Z,99812.94
2023-03-06T15:37:39.790Z,99819.25
2023-03-06T15:40:27.613Z,99819.44
2023-03-06T15:43:14.553Z,99825.69
2023-03-06T15:46:01.607Z,99782.00
2023-03-06T15:48:48.756Z,99816.41
2023-03-06T15:51:35.645Z,99821.72
2023-03-06T15:54:22.452Z,99821.91
2023-03-06T15:57:10.259Z,99798.78
2023-03-06T15:59:43.091Z,99823.91
2023-03-06T16:02:21.342Z,99817.91
2023-03-06T16:04:49.325Z,99823.22
2023-03-06T16:07:16.520Z,99804.38
2023-03-06T16:09:44.135Z,99811.44
2023-03-06T16:12:19.115Z,99821.84
2023-03-06T16:14:47.754Z,99816.75
2023-03-06T16:17:15.484Z,99822.06
2023-03-06T16:19:43.252Z,99823.94
2023-03-06T16:22:10.571Z,99775.00
2023-03-06T16:24:37.648Z,99810.41
2023-03-06T16:27:05.110Z,99815.63
2023-03-06T16:29:32.294Z,99821.03
2023-03-06T16:32:01.836Z,99812.44
2023-03-06T16:34:29.053Z,99820.47
2023-03-06T16:36:56.172Z,99813.66
2023-03-06T16:39:23.894Z,99805.97
2023-03-06T16:41:51.522Z,99805.25
2023-03-06T16:44:19.738Z,99807.13
2023-03-06T16:46:49.440Z,99809.88
2023-03-06T16:49:22.010Z,99809.19
2023-03-06T16:51:49.517Z,99808.47
2023-03-06T16:54:16.775Z,99804.31
2023-03-06T16:56:44.392Z,99800.06
2023-03-06T16:59:11.941Z,99805.44
2023-03-06T17:01:42.647Z,99807.31
2023-03-06T17:04:09.899Z,99806.56
2023-03-06T17:06:36.812Z,99805.94
2023-03-06T17:09:04.645Z,99801.72
2023-03-06T17:11:31.855Z,99805.28
2023-03-06T17:13:58.765Z,99807.13
2023-03-06T17:16:25.797Z,99804.63
2023-03-06T17:18:54.658Z,99797.88
2023-03-06T17:21:26.589Z,99799.69
2023-03-06T17:23:53.597Z,99792.94
2023-03-06T17:26:20.468Z,99793.03
2023-03-06T17:28:47.762Z,99794.88
2023-03-06T17:31:18.091Z,99795.81
2023-03-06T17:33:45.631Z,99795.13
2023-03-06T17:36:14.585Z,99797.84
2023-03-06T17:38:42.335Z,99745.53
2023-03-06T17:41:11.000Z,99792.00
2023-03-06T17:43:38.936Z,99801.69
2023-03-06T17:46:08.606Z,99795.72
2023-03-06T17:48:35.993Z,99786.31
2023-03-06T17:51:03.619Z,99791.59
2023-03-06T17:53:31.638Z,99790.84
2023-03-06T17:55:59.035Z,99780.59
2023-03-06T17:58:27.271Z,99778.16
2023-03-06T18:00:54.357Z,99761.94
2023-03-06T18:03:21.621Z,99746.56
2023-03-06T18:05:57.801Z,99780.22
2023-03-06T18:08:24.788Z,99787.97
2023-03-06T18:10:51.863Z,99755.47
2023-03-06T18:13:18.763Z,99795.06
2023-03-06T18:15:45.791Z,99791.72
2023-03-06T18:18:12.705Z,99785.81
2023-03-06T18:20:44.275Z,99757.59
2023-03-06T18:23:12.163Z,99792.06
2023-03-06T18:25:39.075Z,99792.13
2023-03-06T18:28:06.171Z,99781.91
2023-03-06T18:30:37.362Z,99791.50
2023-03-06T18:33:04.761Z,99789.00
2023-03-06T18:35:31.653Z,99794.28
2023-03-06T18:37:59.107Z,99748.78
2023-03-06T18:40:26.070Z,99785.78
2023-03-06T18:42:54.042Z,99784.16
2023-03-06T18:45:21.382Z,99713.78
2023-03-06T18:47:48.230Z,99777.41
2023-03-06T18:50:17.597Z,99790.44
2023-03-06T18:52:44.880Z,99787.03
2023-03-06T18:55:12.846Z,99788.00
2023-03-06T18:57:40.122Z,99786.31
2023-03-06T19:00:08.663Z,99783.81
2023-03-06T19:02:36.025Z,99787.31
2023-03-06T19:05:03.053Z,99788.22
2023-03-06T19:07:30.037Z,99712.66
2023-03-06T19:09:56.932Z,99789.25
2023-03-06T19:12:24.052Z,99780.63
2023-03-06T19:14:51.044Z,99785.03
2023-03-06T19:17:17.903Z,99784.22
2023-03-06T19:19:45.007Z,99755.88
2023-03-06T19:22:12.086Z,99780.03
2023-03-06T19:24:39.024Z,99785.25
2023-03-06T19:27:06.126Z,99784.47
2023-03-06T19:29:33.507Z,99777.56
2023-03-06T19:32:00.403Z,99778.50
2023-03-06T19:34:27.256Z,99773.38
2023-03-06T19:36:54.236Z,99778.66
2023-03-06T19:39:21.264Z,99784.72
2023-03-06T19:41:48.481Z,99786.50
2023-03-06T19:44:16.392Z,99786.56
2023-03-06T19:46:43.680Z,99783.16
2023-03-06T19:49:18.220Z,99785.81
2023-03-06T19:51:45.449Z,99738.56
2023-03-06T19:54:12.839Z,99789.34
2023-03-06T19:56:40.400Z,99747.25
2023-03-06T19:59:07.462Z,99804.97
2023-03-06T20:01:34.470Z,99791.19
2023-03-06T20:04:01.940Z,99780.06
2023-03-06T20:06:33.780Z,99778.38
2023-03-06T20:09:02.441Z,99793.91
2023-03-06T20:11:30.161Z,99789.63
2023-03-06T20:13:58.999Z,99796.56
2023-03-06T20:16:28.049Z,99791.41
2023-03-06T20:18:58.053Z,99786.25
2023-03-06T20:21:26.073Z,99783.69
2023-03-06T20:23:54.530Z,99778.53
2023-03-06T20:26:21.630Z,99772.53
2023-03-06T20:28:48.723Z,99778.59
2023-03-06T20:31:26.237Z,99774.28
2023-03-06T20:33:54.982Z,99694.28
2023-03-06T20:36:24.566Z,99774.34
2023-03-06T20:38:51.720Z,99766.59
2023-03-06T20:41:24.997Z,99769.19
2023-03-06T20:44:13.466Z,99758.88
2023-03-06T20:47:00.705Z,99759.75
2023-03-06T20:49:47.679Z,99767.53
2023-03-06T20:52:34.628Z,99759.78
2023-03-06T20:55:21.566Z,99765.81
2023-03-06T20:58:09.928Z,99765.00
2023-03-06T21:00:56.803Z,99770.16
2023-03-06T21:03:44.444Z,99759.84
2023-03-06T21:06:31.393Z,99760.69
2023-03-06T21:09:20.018Z,99762.44
2023-03-06T21:12:07.513Z,99762.44
2023-03-06T21:14:54.478Z,99754.66
2023-03-06T21:17:41.416Z,99752.09
2023-03-06T21:20:28.826Z,99753.81
2023-03-06T21:23:15.712Z,99670.34
2023-03-06T21:26:12.525Z,99755.56
2023-03-06T21:28:59.534Z,99713.34
2023-03-06T21:31:47.409Z,99752.97
2023-03-06T21:34:34.454Z,99752.97
2023-03-06T21:37:21.404Z,99750.41
2023-03-06T21:40:08.388Z,99735.78
2023-03-06T21:42:55.363Z,99746.94
2023-03-06T21:45:42.415Z,99748.69
2023-03-06T21:48:29.770Z,99740.94
2023-03-06T21:51:34.753Z,99737.47
2023-03-06T21:54:21.981Z,99677.22
2023-03-06T21:57:08.997Z,99740.06
2023-03-06T21:59:56.941Z,99740.06
2023-03-06T22:02:44.165Z,99736.59
2023-03-06T22:05:31.114Z,99735.78
2023-03-06T22:08:19.334Z,99728.00
2023-03-06T22:11:06.206Z,99726.25
2023-03-06T22:13:53.235Z,99698.72
2023-03-06T22:16:40.322Z,99724.53
2023-03-06T22:19:27.403Z,99723.66
2023-03-06T22:22:14.846Z,99718.50
2023-03-06T22:25:01.874Z,99723.66
2023-03-06T22:27:49.533Z,99673.72
2023-03-06T22:30:36.755Z,99711.63
2023-03-06T22:33:23.645Z,99696.97
2023-03-06T22:36:10.795Z,99709.00
2023-03-06T22:39:00.273Z,99703.00
2023-03-06T22:41:47.694Z,99710.72
2023-03-06T22:44:37.429Z,99712.47
2023-03-06T22:47:24.576Z,99709.88
2023-03-06T22:50:11.400Z,99695.19
2023-03-06T22:52:58.374Z,99690.91
2023-03-06T22:55:45.318Z,99701.25
2023-03-06T22:58:32.154Z,99702.13
2023-03-06T23:01:43.313Z,99704.69
2023-03-06T23:04:30.549Z,99706.41
2023-03-06T23:07:17.405Z,99703.81
2023-03-06T23:10:24.773Z,99705.53
2023-03-06T23:13:29.943Z,99701.25
2023-03-06T23:16:35.843Z,99707.28
2023-03-06T23:19:41.401Z,99695.22
2023-03-06T23:22:47.117Z,99699.53
2023-03-06T23:25:52.552Z,99684.06
2023-03-06T23:29:00.501Z,99685.75
2023-03-06T23:32:07.462Z,99683.16
2023-03-06T23:35:14.381Z,99685.75
2023-03-06T23:38:21.274Z,99685.75
2023-03-06T23:41:08.575Z,99690.06
2023-03-06T23:43:55.519Z,99679.72
2023-03-06T23:46:42.818Z,99684.91
2023-03-06T23:49:30.017Z,99670.28
2023-03-06T23:52:16.884Z,99665.97
2023-03-06T23:55:03.725Z,99684.06
2023-03-06T23:57:51.061Z,99659.97
